createdAt,value
2022-11-29T00:10:23.972Z,93
2022-11-29T00:20:24.541Z,82
2022-11-29T00:30:25.123Z,83
2022-11-29T00:50:26.514Z,84
2022-11-29T00:50:48.455Z,68
2022-11-29T01:00:33.079Z,99
2022-11-29T01:20:34.815Z,66
2022-11-29T01:30:35.414Z,84
2022-11-29T01:40:35.636Z,68
2022-11-29T01:50:36.487Z,86
2022-11-29T02:00:36.787Z,81
2022-11-29T02:10:37.127Z,73
2022-11-29T02:20:37.281Z,100
2022-11-29T02:30:37.924Z,96
2022-11-29T02:40:38.015Z,93
2022-11-29T02:50:38.382Z,91
2022-11-29T03:00:39.092Z,83
2022-11-29T03:10:39.456Z,26
2022-11-29T03:20:39.658Z,5
2022-11-29T03:30:40.126Z,30
2022-11-29T03:40:40.778Z,37
2022-11-29T03:50:41.058Z,0
2022-11-29T04:00:41.672Z,40
2022-11-29T04:10:41.969Z,30
2022-11-29T04:20:44.154Z,12
2022-11-29T04:30:42.377Z,20
2022-11-29T04:40:42.976Z,43
2022-11-29T04:50:44.015Z,5
2022-11-29T05:00:44.342Z,26
2022-11-29T05:10:44.984Z,0
2022-11-29T05:20:45.624Z,1
2022-11-29T05:30:45.836Z,23
2022-11-29T05:40:46.357Z,25
2022-11-29T05:50:46.850Z,31
2022-11-29T06:00:47.265Z,34
2022-11-29T06:10:48.085Z,11
2022-11-29T06:20:48.700Z,14
2022-11-29T06:30:49.333Z,20
2022-11-29T06:40:50.383Z,10
2022-11-29T08:00:55.781Z,39
2022-11-29T08:10:55.808Z,21
2022-11-29T08:20:55.953Z,6
2022-11-29T08:30:56.684Z,39
2022-11-29T08:40:57.241Z,0
2022-11-29T09:00:57.974Z,7
2022-11-29T09:10:58.592Z,35
2022-11-29T09:20:58.791Z,6
2022-11-29T09:30:59.481Z,3
2022-11-29T09:41:00.418Z,0
2022-11-29T09:51:01.375Z,1
2022-11-29T10:01:01.488Z,0
2022-11-29T10:11:01.663Z,0
2022-11-29T10:21:02.123Z,24
2022-11-29T10:31:02.328Z,0
2022-11-29T10:41:02.661Z,0
2022-11-29T10:51:03.522Z,15
2022-11-29T11:01:04.103Z,13
2022-11-29T11:11:04.900Z,0
2022-11-29T11:21:05.402Z,1
2022-11-29T11:31:06.361Z,2
2022-11-29T12:01:07.803Z,21
2022-11-29T12:41:10.340Z,0
2022-11-29T12:51:10.614Z,27
2022-11-29T13:01:10.935Z,0
2022-11-29T13:11:11.913Z,18
2022-11-29T13:21:12.023Z,17
2022-11-29T13:31:12.238Z,0
2022-11-29T13:51:13.675Z,0
2022-11-29T14:01:14.070Z,43
2022-11-29T14:11:14.394Z,13
2022-11-29T14:21:14.432Z,6
2022-11-29T14:31:14.754Z,20
2022-11-29T14:41:14.830Z,0
2022-11-29T14:51:15.806Z,4
2022-11-29T15:01:16.213Z,2
2022-11-29T15:11:16.899Z,16
2022-11-29T15:21:17.258Z,21
2022-11-29T15:31:17.722Z,18
2022-11-29T15:41:18.470Z,16
2022-11-29T15:51:18.869Z,6
2022-11-29T16:01:19.198Z,26
2022-11-29T16:11:20.011Z,0
2022-11-29T16:21:20.442Z,4
2022-11-29T16:31:20.860Z,0
2022-11-29T16:41:21.809Z,6
2022-11-29T16:51:22.699Z,1
2022-11-29T17:01:23.172Z,0
2022-11-29T17:11:23.586Z,0
2022-11-29T17:21:23.759Z,21
2022-11-29T17:31:24.341Z,0
2022-11-29T17:41:24.811Z,0
2022-11-29T17:51:50.976Z,0
2022-11-29T18:01:26.372Z,1
2022-11-29T18:11:27.660Z,12
2022-11-29T18:21:28.338Z,15
2022-11-29T18:31:28.827Z,4
2022-11-29T18:41:29.325Z,20
2022-11-29T18:51:29.412Z,22
2022-11-29T19:01:30.058Z,0
2022-11-29T19:11:30.804Z,0
2022-11-29T19:21:31.030Z,32
2022-11-29T19:31:31.528Z,26
2022-11-29T19:41:32.393Z,0
2022-11-29T19:51:32.517Z,15
2022-11-29T20:01:40.032Z,0
2022-11-29T20:11:33.665Z,0
2022-11-29T20:21:33.872Z,11
2022-11-29T20:31:34.428Z,0
2022-11-29T20:41:34.742Z,9
2022-11-29T21:21:37.448Z,0
2022-11-29T21:31:37.831Z,29
2022-11-29T21:41:37.994Z,6
2022-11-29T21:51:39.000Z,21
2022-11-29T22:01:39.374Z,9
2022-11-29T22:11:39.334Z,10
2022-11-29T22:21:39.643Z,31
2022-11-29T22:31:39.789Z,23
2022-11-29T22:41:40.534Z,5
2022-11-29T22:51:40.737Z,4
2022-11-29T23:01:41.505Z,15
2022-11-29T23:11:41.610Z,0
2022-11-29T23:31:42.639Z,6
2022-11-29T23:41:42.968Z,34
2022-11-29T23:51:43.506Z,34
